sensor_id;sensor_type;location;lat;lon;timestamp;P1;durP1;ratioP1;P2;durP2;ratioP2
18499;SDS011;9379;52.134;11.576;2024-01-16T00:00:58;3.15;;;2.17;;
18499;SDS011;9379;52.134;11.576;2024-01-16T00:03:26;2.85;;;2.65;;
18499;SDS011;9379;52.134;11.576;2024-01-16T00:05:53;3.08;;;2.13;;
18499;SDS011;9379;52.134;11.576;2024-01-16T00:08:20;2.35;;;1.98;;
18499;SDS011;9379;52.134;11.576;2024-01-16T00:10:47;4.47;;;2.75;;
18499;SDS011;9379;52.134;11.576;2024-01-16T00:13:14;2.88;;;1.95;;
18499;SDS011;9379;52.134;11.576;2024-01-16T00:15:41;2.72;;;2.47;;
18499;SDS011;9379;52.134;11.576;2024-01-16T00:18:08;2.40;;;2.20;;
18499;SDS011;9379;52.134;11.576;2024-01-16T00:20:36;2.65;;;2.00;;
18499;SDS011;9379;52.134;11.576;2024-01-16T00:23:03;1.95;;;1.85;;
18499;SDS011;9379;52.134;11.576;2024-01-16T00:25:30;2.40;;;2.08;;
18499;SDS011;9379;52.134;11.576;2024-01-16T00:27:57;2.00;;;1.90;;
18499;SDS011;9379;52.134;11.576;2024-01-16T00:30:24;2.45;;;2.25;;
18499;SDS011;9379;52.134;11.576;2024-01-16T00:32:51;2.13;;;1.73;;
18499;SDS011;9379;52.134;11.576;2024-01-16T00:35:18;2.42;;;2.22;;
18499;SDS011;9379;52.134;11.576;2024-01-16T00:37:46;4.80;;;3.38;;
18499;SDS011;9379;52.134;11.576;2024-01-16T00:40:13;3.13;;;2.88;;
18499;SDS011;9379;52.134;11.576;2024-01-16T00:42:40;3.22;;;2.92;;
18499;SDS011;9379;52.134;11.576;2024-01-16T00:45:07;2.97;;;2.72;;
18499;SDS011;9379;52.134;11.576;2024-01-16T00:47:34;7.35;;;2.50;;
18499;SDS011;9379;52.134;11.576;2024-01-16T00:50:01;5.40;;;2.10;;
18499;SDS011;9379;52.134;11.576;2024-01-16T00:52:28;1.90;;;1.80;;
18499;SDS011;9379;52.134;11.576;2024-01-16T00:54:56;3.28;;;2.47;;
18499;SDS011;9379;52.134;11.576;2024-01-16T00:57:23;2.80;;;2.53;;
18499;SDS011;9379;52.134;11.576;2024-01-16T00:59:49;3.20;;;2.88;;
18499;SDS011;9379;52.134;11.576;2024-01-16T01:02:17;2.72;;;2.63;;
18499;SDS011;9379;52.134;11.576;2024-01-16T01:04:43;2.42;;;2.22;;
18499;SDS011;9379;52.134;11.576;2024-01-16T01:07:12;3.20;;;2.88;;
18499;SDS011;9379;52.134;11.576;2024-01-16T01:09:40;2.35;;;2.15;;
18499;SDS011;9379;52.134;11.576;2024-01-16T01:12:08;4.53;;;2.72;;
18499;SDS011;9379;52.134;11.576;2024-01-16T01:14:37;6.80;;;2.67;;
18499;SDS011;9379;52.134;11.576;2024-01-16T01:17:04;2.90;;;2.70;;
18499;SDS011;9379;52.134;11.576;2024-01-16T01:19:31;3.35;;;3.15;;
18499;SDS011;9379;52.134;11.576;2024-01-16T01:21:58;3.97;;;3.63;;
18499;SDS011;9379;52.134;11.576;2024-01-16T01:24:25;2.92;;;2.70;;
18499;SDS011;9379;52.134;11.576;2024-01-16T01:26:52;2.65;;;2.15;;
18499;SDS011;9379;52.134;11.576;2024-01-16T01:29:20;2.95;;;2.75;;
18499;SDS011;9379;52.134;11.576;2024-01-16T01:31:47;5.15;;;2.58;;
18499;SDS011;9379;52.134;11.576;2024-01-16T01:34:14;2.83;;;2.63;;
18499;SDS011;9379;52.134;11.576;2024-01-16T01:36:41;2.67;;;2.47;;
18499;SDS011;9379;52.134;11.576;2024-01-16T01:39:08;4.30;;;2.72;;
18499;SDS011;9379;52.134;11.576;2024-01-16T01:41:36;3.65;;;2.83;;
18499;SDS011;9379;52.134;11.576;2024-01-16T01:44:04;5.70;;;2.42;;
18499;SDS011;9379;52.134;11.576;2024-01-16T01:46:33;4.25;;;2.03;;
18499;SDS011;9379;52.134;11.576;2024-01-16T01:49:02;7.55;;;2.83;;
18499;SDS011;9379;52.134;11.576;2024-01-16T01:51:29;3.42;;;3.13;;
18499;SDS011;9379;52.134;11.576;2024-01-16T01:57:12;3.85;;;2.35;;
18499;SDS011;9379;52.134;11.576;2024-01-16T01:59:39;3.60;;;2.38;;
18499;SDS011;9379;52.134;11.576;2024-01-16T02:02:08;2.97;;;2.30;;
18499;SDS011;9379;52.134;11.576;2024-01-16T02:04:35;2.17;;;2.08;;
18499;SDS011;9379;52.134;11.576;2024-01-16T02:07:03;3.35;;;2.70;;
18499;SDS011;9379;52.134;11.576;2024-01-16T02:09:30;2.30;;;2.10;;
18499;SDS011;9379;52.134;11.576;2024-01-16T02:11:58;1.92;;;1.83;;
18499;SDS011;9379;52.134;11.576;2024-01-16T02:14:25;2.03;;;1.92;;
18499;SDS011;9379;52.134;11.576;2024-01-16T02:16:51;3.42;;;2.80;;
18499;SDS011;9379;52.134;11.576;2024-01-16T02:19:20;3.95;;;3.22;;
18499;SDS011;9379;52.134;11.576;2024-01-16T02:21:47;2.13;;;1.92;;
18499;SDS011;9379;52.134;11.576;2024-01-16T02:24:16;2.50;;;2.30;;
18499;SDS011;9379;52.134;11.576;2024-01-16T02:26:44;5.38;;;2.08;;
18499;SDS011;9379;52.134;11.576;2024-01-16T02:29:11;2.30;;;2.10;;
18499;SDS011;9379;52.134;11.576;2024-01-16T02:31:38;5.40;;;2.38;;
18499;SDS011;9379;52.134;11.576;2024-01-16T02:34:05;1.95;;;1.73;;
18499;SDS011;9379;52.134;11.576;2024-01-16T02:36:32;4.03;;;1.52;;
18499;SDS011;9379;52.134;11.576;2024-01-16T02:38:59;3.90;;;2.03;;
18499;SDS011;9379;52.134;11.576;2024-01-16T02:41:28;2.63;;;2.42;;
18499;SDS011;9379;52.134;11.576;2024-01-16T02:43:55;2.60;;;2.40;;
18499;SDS011;9379;52.134;11.576;2024-01-16T02:46:22;3.55;;;2.70;;
18499;SDS011;9379;52.134;11.576;2024-01-16T02:48:49;2.00;;;1.90;;
18499;SDS011;9379;52.134;11.576;2024-01-16T02:51:16;2.38;;;2.17;;
18499;SDS011;9379;52.134;11.576;2024-01-16T02:53:43;2.05;;;1.95;;
18499;SDS011;9379;52.134;11.576;2024-01-16T02:56:10;2.20;;;1.85;;
18499;SDS011;9379;52.134;11.576;2024-01-16T02:58:38;2.47;;;2.00;;
18499;SDS011;9379;52.134;11.576;2024-01-16T03:01:05;1.70;;;1.60;;
18499;SDS011;9379;52.134;11.576;2024-01-16T03:03:32;1.70;;;1.60;;
18499;SDS011;9379;52.134;11.576;2024-01-16T03:06:00;1.70;;;1.60;;
18499;SDS011;9379;52.134;11.576;2024-01-16T03:08:27;5.80;;;1.73;;
18499;SDS011;9379;52.134;11.576;2024-01-16T03:10:54;1.77;;;1.60;;
18499;SDS011;9379;52.134;11.576;2024-01-16T03:13:21;4.35;;;1.80;;
18499;SDS011;9379;52.134;11.576;2024-01-16T03:15:49;2.90;;;2.30;;
18499;SDS011;9379;52.134;11.576;2024-01-16T03:18:16;1.75;;;1.65;;
18499;SDS011;9379;52.134;11.576;2024-01-16T03:20:43;2.13;;;1.90;;
18499;SDS011;9379;52.134;11.576;2024-01-16T03:23:10;2.72;;;2.08;;
18499;SDS011;9379;52.134;11.576;2024-01-16T03:25:36;2.13;;;2.00;;
18499;SDS011;9379;52.134;11.576;2024-01-16T03:28:04;2.88;;;2.67;;
18499;SDS011;9379;52.134;11.576;2024-01-16T03:30:33;5.65;;;2.33;;
18499;SDS011;9379;52.134;11.576;2024-01-16T03:33:03;2.88;;;2.67;;
18499;SDS011;9379;52.134;11.576;2024-01-16T03:35:30;1.77;;;1.67;;
18499;SDS011;9379;52.134;11.576;2024-01-16T03:37:57;2.92;;;2.30;;
18499;SDS011;9379;52.134;11.576;2024-01-16T03:40:24;1.77;;;1.55;;
18499;SDS011;9379;52.134;11.576;2024-01-16T03:42:50;2.88;;;2.25;;
18499;SDS011;9379;52.134;11.576;2024-01-16T03:45:17;1.85;;;1.75;;
18499;SDS011;9379;52.134;11.576;2024-01-16T03:47:44;1.92;;;1.83;;
18499;SDS011;9379;52.134;11.576;2024-01-16T03:50:13;1.88;;;1.77;;
18499;SDS011;9379;52.134;11.576;2024-01-16T03:52:40;1.95;;;1.77;;
18499;SDS011;9379;52.134;11.576;2024-01-16T03:55:07;2.38;;;2.17;;
18499;SDS011;9379;52.134;11.576;2024-01-16T03:57:34;1.73;;;1.65;;
18499;SDS011;9379;52.134;11.576;2024-01-16T04:00:01;2.50;;;2.30;;
18499;SDS011;9379;52.134;11.576;2024-01-16T04:02:30;2.35;;;2.25;;
18499;SDS011;9379;52.134;11.576;2024-01-16T04:04:57;1.77;;;1.67;;
18499;SDS011;9379;52.134;11.576;2024-01-16T04:07:25;1.38;;;1.27;;
18499;SDS011;9379;52.134;11.576;2024-01-16T04:09:52;2.60;;;2.40;;
18499;SDS011;9379;52.134;11.576;2024-01-16T04:12:19;2.42;;;2.10;;
18499;SDS011;9379;52.134;11.576;2024-01-16T04:14:46;2.03;;;1.90;;
18499;SDS011;9379;52.134;11.576;2024-01-16T04:17:13;2.22;;;2.03;;
18499;SDS011;9379;52.134;11.576;2024-01-16T04:19:39;3.80;;;2.45;;
18499;SDS011;9379;52.134;11.576;2024-01-16T04:22:06;3.22;;;2.60;;
18499;SDS011;9379;52.134;11.576;2024-01-16T04:24:35;3.03;;;2.47;;
18499;SDS011;9379;52.134;11.576;2024-01-16T04:27:02;4.80;;;1.85;;
18499;SDS011;9379;52.134;11.576;2024-01-16T04:29:30;3.10;;;2.35;;
18499;SDS011;9379;52.134;11.576;2024-01-16T04:31:56;3.63;;;2.67;;
18499;SDS011;9379;52.134;11.576;2024-01-16T04:34:24;2.47;;;2.28;;
18499;SDS011;9379;52.134;11.576;2024-01-16T04:36:51;8.55;;;2.88;;
18499;SDS011;9379;52.134;11.576;2024-01-16T04:39:18;2.10;;;2.00;;
18499;SDS011;9379;52.134;11.576;2024-01-16T04:41:48;2.42;;;2.25;;
18499;SDS011;9379;52.134;11.576;2024-01-16T04:44:15;5.90;;;2.80;;
18499;SDS011;9379;52.134;11.576;2024-01-16T04:46:42;2.25;;;2.15;;
18499;SDS011;9379;52.134;11.576;2024-01-16T04:49:09;1.35;;;1.35;;
18499;SDS011;9379;52.134;11.576;2024-01-16T04:51:36;2.58;;;2.22;;
18499;SDS011;9379;52.134;11.576;2024-01-16T04:54:03;1.65;;;1.55;;
18499;SDS011;9379;52.134;11.576;2024-01-16T04:56:29;1.80;;;1.70;;
18499;SDS011;9379;52.134;11.576;2024-01-16T04:58:58;1.50;;;1.40;;
18499;SDS011;9379;52.134;11.576;2024-01-16T05:01:25;2.20;;;2.10;;
18499;SDS011;9379;52.134;11.576;2024-01-16T05:03:52;1.88;;;1.40;;
18499;SDS011;9379;52.134;11.576;2024-01-16T05:06:19;2.90;;;1.70;;
18499;SDS011;9379;52.134;11.576;2024-01-16T05:08:47;2.35;;;2.15;;
18499;SDS011;9379;52.134;11.576;2024-01-16T05:11:14;1.95;;;1.85;;
18499;SDS011;9379;52.134;11.576;2024-01-16T05:13:40;3.17;;;2.35;;
18499;SDS011;9379;52.134;11.576;2024-01-16T05:16:12;1.75;;;1.65;;
18499;SDS011;9379;52.134;11.576;2024-01-16T05:18:41;2.08;;;1.70;;
18499;SDS011;9379;52.134;11.576;2024-01-16T05:21:08;1.88;;;1.77;;
18499;SDS011;9379;52.134;11.576;2024-01-16T05:23:35;1.40;;;1.40;;
18499;SDS011;9379;52.134;11.576;2024-01-16T05:26:02;2.10;;;1.90;;
18499;SDS011;9379;52.134;11.576;2024-01-16T05:31:47;1.63;;;1.52;;
18499;SDS011;9379;52.134;11.576;2024-01-16T05:34:14;2.28;;;2.08;;
18499;SDS011;9379;52.134;11.576;2024-01-16T05:36:41;1.95;;;1.85;;
18499;SDS011;9379;52.134;11.576;2024-01-16T05:39:09;2.70;;;2.45;;
18499;SDS011;9379;52.134;11.576;2024-01-16T05:41:36;1.88;;;1.73;;
18499;SDS011;9379;52.134;11.576;2024-01-16T05:44:03;2.50;;;1.80;;
18499;SDS011;9379;52.134;11.576;2024-01-16T05:46:30;2.83;;;2.63;;
18499;SDS011;9379;52.134;11.576;2024-01-16T05:48:59;2.75;;;2.55;;
18499;SDS011;9379;52.134;11.576;2024-01-16T05:51:27;2.88;;;2.67;;
18499;SDS011;9379;52.134;11.576;2024-01-16T05:53:54;1.92;;;1.83;;
18499;SDS011;9379;52.134;11.576;2024-01-16T05:56:21;4.97;;;2.80;;
18499;SDS011;9379;52.134;11.576;2024-01-16T05:58:48;3.30;;;3.00;;
18499;SDS011;9379;52.134;11.576;2024-01-16T06:01:15;1.85;;;1.75;;
18499;SDS011;9379;52.134;11.576;2024-01-16T06:03:41;2.78;;;2.58;;
18499;SDS011;9379;52.134;11.576;2024-01-16T06:06:12;4.88;;;2.33;;
18499;SDS011;9379;52.134;11.576;2024-01-16T06:08:39;3.90;;;2.67;;
18499;SDS011;9379;52.134;11.576;2024-01-16T06:11:07;3.22;;;3.03;;
18499;SDS011;9379;52.134;11.576;2024-01-16T06:13:33;3.63;;;3.33;;
18499;SDS011;9379;52.134;11.576;2024-01-16T06:16:00;4.30;;;3.90;;
18499;SDS011;9379;52.134;11.576;2024-01-16T06:18:28;2.83;;;2.60;;
18499;SDS011;9379;52.134;11.576;2024-01-16T06:20:55;1.88;;;1.75;;
18499;SDS011;9379;52.134;11.576;2024-01-16T06:23:23;6.82;;;4.55;;
18499;SDS011;9379;52.134;11.576;2024-01-16T06:25:50;4.50;;;3.47;;
18499;SDS011;9379;52.134;11.576;2024-01-16T06:28:17;2.67;;;2.28;;
18499;SDS011;9379;52.134;11.576;2024-01-16T06:30:44;3.58;;;2.65;;
18499;SDS011;9379;52.134;11.576;2024-01-16T06:33:11;4.22;;;3.33;;
18499;SDS011;9379;52.134;11.576;2024-01-16T06:35:38;2.10;;;2.00;;
18499;SDS011;9379;52.134;11.576;2024-01-16T06:38:05;1.40;;;1.25;;
18499;SDS011;9379;52.134;11.576;2024-01-16T06:40:33;4.10;;;2.22;;
18499;SDS011;9379;52.134;11.576;2024-01-16T06:43:00;2.65;;;1.83;;
18499;SDS011;9379;52.134;11.576;2024-01-16T06:45:27;7.57;;;2.95;;
18499;SDS011;9379;52.134;11.576;2024-01-16T06:47:54;3.58;;;3.25;;
18499;SDS011;9379;52.134;11.576;2024-01-16T06:50:21;2.55;;;2.28;;
18499;SDS011;9379;52.134;11.576;2024-01-16T06:52:48;2.53;;;2.33;;
18499;SDS011;9379;52.134;11.576;2024-01-16T06:55:15;3.72;;;2.30;;
18499;SDS011;9379;52.134;11.576;2024-01-16T06:57:43;13.52;;;2.22;;
18499;SDS011;9379;52.134;11.576;2024-01-16T07:00:12;3.35;;;2.50;;
18499;SDS011;9379;52.134;11.576;2024-01-16T07:02:40;2.25;;;2.13;;
18499;SDS011;9379;52.134;11.576;2024-01-16T07:05:08;1.92;;;1.83;;
18499;SDS011;9379;52.134;11.576;2024-01-16T07:07:35;3.25;;;2.95;;
18499;SDS011;9379;52.134;11.576;2024-01-16T07:10:02;7.68;;;3.25;;
18499;SDS011;9379;52.134;11.576;2024-01-16T07:12:33;2.45;;;2.25;;
18499;SDS011;9379;52.134;11.576;2024-01-16T07:15:01;1.55;;;1.45;;
18499;SDS011;9379;52.134;11.576;2024-01-16T07:17:28;1.67;;;1.58;;
18499;SDS011;9379;52.134;11.576;2024-01-16T07:19:55;1.40;;;1.30;;
18499;SDS011;9379;52.134;11.576;2024-01-16T07:22:23;4.45;;;2.90;;
18499;SDS011;9379;52.134;11.576;2024-01-16T07:24:50;2.20;;;1.98;;
18499;SDS011;9379;52.134;11.576;2024-01-16T07:27:17;6.38;;;2.55;;
18499;SDS011;9379;52.134;11.576;2024-01-16T07:29:44;2.15;;;1.88;;
18499;SDS011;9379;52.134;11.576;2024-01-16T07:32:12;7.93;;;2.15;;
18499;SDS011;9379;52.134;11.576;2024-01-16T07:34:39;2.65;;;2.50;;
18499;SDS011;9379;52.134;11.576;2024-01-16T07:37:06;8.05;;;3.28;;
18499;SDS011;9379;52.134;11.576;2024-01-16T07:39:33;2.75;;;2.35;;
18499;SDS011;9379;52.134;11.576;2024-01-16T07:42:00;3.78;;;1.80;;
18499;SDS011;9379;52.134;11.576;2024-01-16T07:44:27;4.75;;;2.30;;
18499;SDS011;9379;52.134;11.576;2024-01-16T07:46:54;6.78;;;2.33;;
18499;SDS011;9379;52.134;11.576;2024-01-16T07:49:22;3.58;;;1.88;;
18499;SDS011;9379;52.134;11.576;2024-01-16T07:51:49;2.15;;;2.03;;
18499;SDS011;9379;52.134;11.576;2024-01-16T07:54:15;2.47;;;2.28;;
18499;SDS011;9379;52.134;11.576;2024-01-16T07:56:42;1.83;;;1.73;;
18499;SDS011;9379;52.134;11.576;2024-01-16T07:59:10;7.85;;;2.03;;
18499;SDS011;9379;52.134;11.576;2024-01-16T08:01:37;2.53;;;2.42;;
18499;SDS011;9379;52.134;11.576;2024-01-16T08:04:04;3.83;;;1.98;;
18499;SDS011;9379;52.134;11.576;2024-01-16T08:06:32;2.25;;;1.83;;
18499;SDS011;9379;52.134;11.576;2024-01-16T08:08:59;2.00;;;1.90;;
18499;SDS011;9379;52.134;11.576;2024-01-16T08:11:26;1.67;;;1.58;;
18499;SDS011;9379;52.134;11.576;2024-01-16T08:13:54;5.70;;;2.58;;
18499;SDS011;9379;52.134;11.576;2024-01-16T08:16:21;4.63;;;2.38;;
18499;SDS011;9379;52.134;11.576;2024-01-16T08:18:48;3.20;;;1.73;;
18499;SDS011;9379;52.134;11.576;2024-01-16T08:21:15;1.85;;;1.73;;
18499;SDS011;9379;52.134;11.576;2024-01-16T08:23:43;2.85;;;2.63;;
18499;SDS011;9379;52.134;11.576;2024-01-16T08:26:10;2.17;;;1.95;;
18499;SDS011;9379;52.134;11.576;2024-01-16T08:28:37;1.88;;;1.77;;
18499;SDS011;9379;52.134;11.576;2024-01-16T08:31:03;2.20;;;1.70;;
18499;SDS011;9379;52.134;11.576;2024-01-16T08:33:30;2.45;;;1.85;;
18499;SDS011;9379;52.134;11.576;2024-01-16T08:35:57;4.80;;;3.22;;
18499;SDS011;9379;52.134;11.576;2024-01-16T08:38:25;2.72;;;2.50;;
18499;SDS011;9379;52.134;11.576;2024-01-16T08:40:53;2.92;;;1.88;;
18499;SDS011;9379;52.134;11.576;2024-01-16T08:43:20;3.50;;;3.00;;
18499;SDS011;9379;52.134;11.576;2024-01-16T08:45:47;3.13;;;2.83;;
18499;SDS011;9379;52.134;11.576;2024-01-16T08:48:14;3.63;;;1.90;;
18499;SDS011;9379;52.134;11.576;2024-01-16T08:50:41;4.90;;;2.05;;
18499;SDS011;9379;52.134;11.576;2024-01-16T08:53:08;2.47;;;2.33;;
18499;SDS011;9379;52.134;11.576;2024-01-16T08:55:35;4.15;;;2.03;;
18499;SDS011;9379;52.134;11.576;2024-01-16T08:58:03;4.72;;;2.80;;
18499;SDS011;9379;52.134;11.576;2024-01-16T09:00:30;4.68;;;2.75;;
18499;SDS011;9379;52.134;11.576;2024-01-16T09:02:58;2.40;;;2.20;;
18499;SDS011;9379;52.134;11.576;2024-01-16T09:05:25;4.85;;;2.67;;
18499;SDS011;9379;52.134;11.576;2024-01-16T09:07:52;3.90;;;2.92;;
18499;SDS011;9379;52.134;11.576;2024-01-16T09:10:19;3.72;;;2.00;;
18499;SDS011;9379;52.134;11.576;2024-01-16T09:12:46;1.75;;;1.65;;
18499;SDS011;9379;52.134;11.576;2024-01-16T09:15:15;1.95;;;1.85;;
18499;SDS011;9379;52.134;11.576;2024-01-16T09:17:44;4.32;;;2.25;;
18499;SDS011;9379;52.134;11.576;2024-01-16T09:20:11;2.05;;;1.90;;
18499;SDS011;9379;52.134;11.576;2024-01-16T09:22:38;3.20;;;1.85;;
18499;SDS011;9379;52.134;11.576;2024-01-16T09:25:05;2.40;;;1.85;;
18499;SDS011;9379;52.134;11.576;2024-01-16T09:27:33;7.65;;;3.03;;
18499;SDS011;9379;52.134;11.576;2024-01-16T09:29:59;1.92;;;1.83;;
18499;SDS011;9379;52.134;11.576;2024-01-16T09:32:28;1.73;;;1.63;;
18499;SDS011;9379;52.134;11.576;2024-01-16T09:34:54;6.22;;;2.63;;
18499;SDS011;9379;52.134;11.576;2024-01-16T09:37:23;2.00;;;1.85;;
18499;SDS011;9379;52.134;11.576;2024-01-16T09:39:50;2.15;;;1.95;;
18499;SDS011;9379;52.134;11.576;2024-01-16T09:42:19;7.97;;;1.77;;
18499;SDS011;9379;52.134;11.576;2024-01-16T09:44:46;3.97;;;2.50;;
18499;SDS011;9379;52.134;11.576;2024-01-16T09:47:15;2.22;;;2.13;;
18499;SDS011;9379;52.134;11.576;2024-01-16T09:49:44;2.00;;;1.90;;
18499;SDS011;9379;52.134;11.576;2024-01-16T09:52:12;3.20;;;2.38;;
18499;SDS011;9379;52.134;11.576;2024-01-16T09:54:39;5.63;;;2.90;;
18499;SDS011;9379;52.134;11.576;2024-01-16T09:57:06;3.13;;;2.70;;
18499;SDS011;9379;52.134;11.576;2024-01-16T09:59:35;4.72;;;2.60;;
18499;SDS011;9379;52.134;11.576;2024-01-16T10:02:04;3.25;;;2.95;;
18499;SDS011;9379;52.134;11.576;2024-01-16T10:04:32;4.50;;;3.13;;
18499;SDS011;9379;52.134;11.576;2024-01-16T10:07:01;5.13;;;3.05;;
18499;SDS011;9379;52.134;11.576;2024-01-16T10:09:28;2.40;;;2.20;;
18499;SDS011;9379;52.134;11.576;2024-01-16T10:11:55;5.20;;;3.75;;
18499;SDS011;9379;52.134;11.576;2024-01-16T10:14:22;2.97;;;2.78;;
18499;SDS011;9379;52.134;11.576;2024-01-16T10:17:00;3.25;;;2.28;;
18499;SDS011;9379;52.134;11.576;2024-01-16T10:19:30;2.40;;;2.30;;
18499;SDS011;9379;52.134;11.576;2024-01-16T10:22:02;12.98;;;6.63;;
18499;SDS011;9379;52.134;11.576;2024-01-16T10:24:30;8.10;;;5.43;;
18499;SDS011;9379;52.134;11.576;2024-01-16T10:26:59;6.07;;;3.83;;
18499;SDS011;9379;52.134;11.576;2024-01-16T10:29:28;2.97;;;2.70;;
18499;SDS011;9379;52.134;11.576;2024-01-16T10:31:54;3.83;;;2.30;;
18499;SDS011;9379;52.134;11.576;2024-01-16T10:34:22;2.10;;;1.85;;
18499;SDS011;9379;52.134;11.576;2024-01-16T10:36:50;5.45;;;4.47;;
18499;SDS011;9379;52.134;11.576;2024-01-16T10:39:19;4.05;;;3.45;;
18499;SDS011;9379;52.134;11.576;2024-01-16T10:41:56;7.88;;;4.10;;
18499;SDS011;9379;52.134;11.576;2024-01-16T10:44:24;4.28;;;3.95;;
18499;SDS011;9379;52.134;11.576;2024-01-16T10:46:52;3.47;;;2.78;;
18499;SDS011;9379;52.134;11.576;2024-01-16T10:49:35;3.42;;;3.03;;
18499;SDS011;9379;52.134;11.576;2024-01-16T10:52:03;2.08;;;1.92;;
18499;SDS011;9379;52.134;11.576;2024-01-16T10:54:37;2.28;;;2.17;;
18499;SDS011;9379;52.134;11.576;2024-01-16T10:57:09;3.25;;;2.97;;
18499;SDS011;9379;52.134;11.576;2024-01-16T10:59:39;3.85;;;2.50;;
18499;SDS011;9379;52.134;11.576;2024-01-16T11:02:14;3.47;;;3.00;;
18499;SDS011;9379;52.134;11.576;2024-01-16T11:04:46;5.78;;;3.47;;
18499;SDS011;9379;52.134;11.576;2024-01-16T11:07:14;7.38;;;2.45;;
18499;SDS011;9379;52.134;11.576;2024-01-16T11:09:44;2.75;;;2.55;;
18499;SDS011;9379;52.134;11.576;2024-01-16T11:12:12;3.92;;;3.55;;
18499;SDS011;9379;52.134;11.576;2024-01-16T11:14:41;3.72;;;2.83;;
18499;SDS011;9379;52.134;11.576;2024-01-16T11:17:10;4.30;;;3.00;;
18499;SDS011;9379;52.134;11.576;2024-01-16T11:19:43;3.03;;;2.83;;
18499;SDS011;9379;52.134;11.576;2024-01-16T11:22:11;3.25;;;2.97;;
18499;SDS011;9379;52.134;11.576;2024-01-16T11:24:38;6.03;;;2.97;;
18499;SDS011;9379;52.134;11.576;2024-01-16T11:27:06;5.88;;;4.55;;
18499;SDS011;9379;52.134;11.576;2024-01-16T11:29:34;6.68;;;4.07;;
18499;SDS011;9379;52.134;11.576;2024-01-16T11:32:02;5.65;;;4.90;;
18499;SDS011;9379;52.134;11.576;2024-01-16T11:37:24;4.78;;;4.00;;
18499;SDS011;9379;52.134;11.576;2024-01-16T11:39:54;11.82;;;4.95;;
18499;SDS011;9379;52.134;11.576;2024-01-16T11:42:49;4.45;;;4.05;;
18499;SDS011;9379;52.134;11.576;2024-01-16T11:48:18;6.20;;;5.10;;
18499;SDS011;9379;52.134;11.576;2024-01-16T11:50:46;5.32;;;4.82;;
18499;SDS011;9379;52.134;11.576;2024-01-16T11:53:32;5.20;;;4.38;;
18499;SDS011;9379;52.134;11.576;2024-01-16T11:59:12;4.10;;;3.80;;
18499;SDS011;9379;52.134;11.576;2024-01-16T12:01:56;3.72;;;3.42;;
18499;SDS011;9379;52.134;11.576;2024-01-16T12:04:24;4.47;;;4.07;;
18499;SDS011;9379;52.134;11.576;2024-01-16T12:06:58;5.22;;;3.17;;
18499;SDS011;9379;52.134;11.576;2024-01-16T12:09:26;13.75;;;4.82;;
18499;SDS011;9379;52.134;11.576;2024-01-16T12:11:56;6.40;;;4.18;;
18499;SDS011;9379;52.134;11.576;2024-01-16T12:14:25;3.85;;;3.42;;
18499;SDS011;9379;52.134;11.576;2024-01-16T12:16:52;4.50;;;3.97;;
18499;SDS011;9379;52.134;11.576;2024-01-16T12:19:19;8.02;;;5.05;;
18499;SDS011;9379;52.134;11.576;2024-01-16T12:21:46;5.38;;;4.43;;
18499;SDS011;9379;52.134;11.576;2024-01-16T12:24:13;4.05;;;3.03;;
18499;SDS011;9379;52.134;11.576;2024-01-16T12:26:40;3.80;;;3.53;;
18499;SDS011;9379;52.134;11.576;2024-01-16T12:29:07;4.65;;;4.07;;
18499;SDS011;9379;52.134;11.576;2024-01-16T12:31:37;6.28;;;4.07;;
18499;SDS011;9379;52.134;11.576;2024-01-16T12:34:07;4.28;;;3.97;;
18499;SDS011;9379;52.134;11.576;2024-01-16T12:36:35;14.02;;;4.32;;
18499;SDS011;9379;52.134;11.576;2024-01-16T12:39:03;6.40;;;3.88;;
18499;SDS011;9379;52.134;11.576;2024-01-16T12:41:32;3.85;;;3.05;;
18499;SDS011;9379;52.134;11.576;2024-01-16T12:44:04;4.85;;;4.40;;
18499;SDS011;9379;52.134;11.576;2024-01-16T12:46:31;3.22;;;3.00;;
18499;SDS011;9379;52.134;11.576;2024-01-16T12:49:03;2.92;;;2.72;;
18499;SDS011;9379;52.134;11.576;2024-01-16T12:51:31;3.53;;;3.22;;
18499;SDS011;9379;52.134;11.576;2024-01-16T12:54:09;4.13;;;3.33;;
18499;SDS011;9379;52.134;11.576;2024-01-16T12:56:37;3.65;;;3.35;;
18499;SDS011;9379;52.134;11.576;2024-01-16T12:59:08;4.35;;;3.45;;
18499;SDS011;9379;52.134;11.576;2024-01-16T13:01:36;10.43;;;3.55;;
18499;SDS011;9379;52.134;11.576;2024-01-16T13:04:08;5.43;;;4.03;;
18499;SDS011;9379;52.134;11.576;2024-01-16T13:06:35;5.95;;;5.10;;
18499;SDS011;9379;52.134;11.576;2024-01-16T13:09:06;13.40;;;6.70;;
18499;SDS011;9379;52.134;11.576;2024-01-16T13:11:46;14.02;;;5.75;;
18499;SDS011;9379;52.134;11.576;2024-01-16T13:14:14;6.55;;;5.32;;
18499;SDS011;9379;52.134;11.576;2024-01-16T13:16:41;24.58;;;14.75;;
18499;SDS011;9379;52.134;11.576;2024-01-16T13:19:15;25.80;;;15.75;;
18499;SDS011;9379;52.134;11.576;2024-01-16T13:21:43;23.52;;;15.57;;
18499;SDS011;9379;52.134;11.576;2024-01-16T13:24:10;17.95;;;12.45;;
18499;SDS011;9379;52.134;11.576;2024-01-16T13:26:37;20.42;;;14.30;;
18499;SDS011;9379;52.134;11.576;2024-01-16T13:29:05;15.50;;;8.32;;
18499;SDS011;9379;52.134;11.576;2024-01-16T13:31:32;10.80;;;7.43;;
18499;SDS011;9379;52.134;11.576;2024-01-16T13:33:59;5.50;;;4.35;;
18499;SDS011;9379;52.134;11.576;2024-01-16T13:36:27;4.70;;;4.25;;
18499;SDS011;9379;52.134;11.576;2024-01-16T13:38:54;5.07;;;4.25;;
18499;SDS011;9379;52.134;11.576;2024-01-16T13:41:22;3.83;;;3.53;;
18499;SDS011;9379;52.134;11.576;2024-01-16T13:43:48;6.03;;;4.40;;
18499;SDS011;9379;52.134;11.576;2024-01-16T13:46:15;5.40;;;3.95;;
18499;SDS011;9379;52.134;11.576;2024-01-16T13:48:43;9.38;;;4.00;;
18499;SDS011;9379;52.134;11.576;2024-01-16T13:51:10;4.22;;;3.88;;
18499;SDS011;9379;52.134;11.576;2024-01-16T13:53:38;6.60;;;4.00;;
18499;SDS011;9379;52.134;11.576;2024-01-16T13:56:05;4.78;;;3.63;;
18499;SDS011;9379;52.134;11.576;2024-01-16T13:58:33;4.30;;;3.40;;
18499;SDS011;9379;52.134;11.576;2024-01-16T14:01:00;7.53;;;3.95;;
18499;SDS011;9379;52.134;11.576;2024-01-16T14:03:26;9.75;;;3.42;;
18499;SDS011;9379;52.134;11.576;2024-01-16T14:05:54;3.60;;;3.33;;
18499;SDS011;9379;52.134;11.576;2024-01-16T14:08:22;4.65;;;3.65;;
18499;SDS011;9379;52.134;11.576;2024-01-16T14:10:50;3.45;;;3.15;;
18499;SDS011;9379;52.134;11.576;2024-01-16T14:13:17;7.50;;;4.53;;
18499;SDS011;9379;52.134;11.576;2024-01-16T14:15:44;7.22;;;4.95;;
18499;SDS011;9379;52.134;11.576;2024-01-16T14:18:11;4.82;;;4.32;;
18499;SDS011;9379;52.134;11.576;2024-01-16T14:20:38;6.60;;;4.07;;
18499;SDS011;9379;52.134;11.576;2024-01-16T14:23:04;4.85;;;4.45;;
18499;SDS011;9379;52.134;11.576;2024-01-16T14:25:31;3.45;;;3.15;;
18499;SDS011;9379;52.134;11.576;2024-01-16T14:28:00;5.05;;;3.92;;
18499;SDS011;9379;52.134;11.576;2024-01-16T14:30:28;4.47;;;3.92;;
18499;SDS011;9379;52.134;11.576;2024-01-16T14:32:55;4.28;;;3.90;;
18499;SDS011;9379;52.134;11.576;2024-01-16T14:35:22;5.40;;;4.80;;
18499;SDS011;9379;52.134;11.576;2024-01-16T14:37:50;3.65;;;3.35;;
18499;SDS011;9379;52.134;11.576;2024-01-16T14:40:17;7.32;;;5.18;;
18499;SDS011;9379;52.134;11.576;2024-01-16T14:42:50;4.38;;;3.97;;
18499;SDS011;9379;52.134;11.576;2024-01-16T14:45:20;5.00;;;4.60;;
18499;SDS011;9379;52.134;11.576;2024-01-16T14:47:47;4.25;;;3.53;;
18499;SDS011;9379;52.134;11.576;2024-01-16T14:50:14;6.30;;;4.53;;
18499;SDS011;9379;52.134;11.576;2024-01-16T14:52:42;6.40;;;5.28;;
18499;SDS011;9379;52.134;11.576;2024-01-16T14:55:09;5.40;;;4.93;;
18499;SDS011;9379;52.134;11.576;2024-01-16T14:57:37;5.75;;;4.75;;
18499;SDS011;9379;52.134;11.576;2024-01-16T15:00:07;4.93;;;4.47;;
18499;SDS011;9379;52.134;11.576;2024-01-16T15:02:41;7.55;;;5.10;;
18499;SDS011;9379;52.134;11.576;2024-01-16T15:05:08;7.95;;;5.35;;
18499;SDS011;9379;52.134;11.576;2024-01-16T15:07:39;4.50;;;4.15;;